Latest Weather Observations for Smithton

IDT60801

Issued at 11:05 am EDT Tuesday 21 October 2014 (issued every 30 minutes, with the page automatically refreshed every 10 minutes)

About weather observations | Map of weather stations | Latest weather observations for TAS | Other Formats
Station Details ID: 091292 Name: SMITHTON AERODROME Lat: -40.83 Lon: 145.08 Height: 7.5 m
Data from the previous 72 hours. | See also: Recent months at Smithton
Date/Time
EDT
Temp
°C
App
Temp
°C
Dew
Point
Rel
Hum
%
Delta-T
°C
Wind Press
QNH
hPa
Press
MSL
hPa
Rain
since 9 am
mm
Dir
 
Spd
km/h
Gust
km/h
Spd
kts
Gust
kts
21/11:00am 15.0 6.3 8.3 64 3.3 E 44 57 24 31 1031.1 - 0.0
21/10:30am 14.8 6.7 8.7 67 3.1 E 41 56 22 30 1031.5 - 0.0
21/10:16am 15.2 8.4 9.1 67 3.1 E 35 54 19 29 1031.6 - 0.0
21/10:00am 14.8 7.4 8.5 66 3.2 E 37 52 20 28 1031.3 - 0.0
21/09:37am 14.4 7.1 7.2 62 3.5 ENE 35 59 19 32 1031.7 - 0.0
21/09:30am 14.4 7.6 7.9 65 3.2 ENE 33 50 18 27 1031.6 - 0.0
21/09:12am 13.7 6.1 7.5 66 3.0 E 37 57 20 31 1031.7 - 0.0
21/09:00am 13.8 6.7 8.2 69 2.8 E 35 48 19 26 1031.7 1031.7 0.0
21/08:30am 13.5 5.7 6.6 63 3.3 ENE 37 50 20 27 1031.5 - 0.0
21/08:01am 13.1 6.6 6.7 65 3.1 ENE 30 48 16 26 1031.7 - 0.0
21/08:00am 13.0 6.1 6.6 65 3.1 ENE 32 48 17 26 1031.8 - 0.0
21/07:30am 12.2 6.0 6.3 67 2.8 E 28 43 15 23 1031.6 - 0.0
21/07:00am 11.6 4.4 6.1 69 2.6 ENE 33 44 18 24 1031.4 - 0.0
21/06:30am 11.4 4.2 5.7 68 2.6 ENE 33 46 18 25 1031.2 - 0.0
21/06:19am 11.7 4.6 5.6 66 2.8 ENE 32 52 17 28 1031.2 - 0.0
21/06:00am 11.8 5.6 6.3 69 2.6 ENE 28 41 15 22 1031.0 1031.0 0.0
21/05:30am 11.8 4.5 5.4 65 3.0 ENE 33 48 18 26 1030.9 - 0.0
21/05:00am 11.5 4.4 5.6 67 2.7 ENE 32 46 17 25 1031.0 - 0.0
21/04:56am 11.7 5.4 5.6 66 2.8 ENE 28 46 15 25 1030.9 - 0.0
21/04:30am 11.6 4.4 5.9 68 2.7 ENE 33 46 18 25 1030.9 - 0.0
21/04:00am 11.0 3.9 5.3 68 2.6 ENE 32 44 17 24 1030.7 - 0.0
21/03:30am 10.8 3.7 5.3 69 2.5 ENE 32 43 17 23 1031.0 - 0.0
21/03:00am 11.1 3.7 5.2 67 2.7 ENE 33 44 18 24 1031.3 1031.3 0.0
21/02:30am 11.3 4.6 5.8 69 2.6 ENE 30 43 16 23 1031.7 - 0.0
21/02:00am 11.3 4.7 6.0 70 2.5 ENE 30 43 16 23 1032.0 - 0.0
21/01:30am 11.5 5.0 6.4 71 2.4 ENE 30 39 16 21 1032.6 - 0.0
21/01:00am 11.3 5.8 7.6 78 1.8 ENE 26 33 14 18 1032.9 - 0.0
21/12:30am 8.6 5.3 6.4 86 1.0 E 13 20 7 11 1033.1 - 0.0
21/12:00am 7.2 3.2 4.7 84 1.1 ESE 15 17 8 9 1033.1 1033.1 0.0
 
Date/Time
EDT
Temp
°C
App
Temp
°C
Dew
Point
Rel
Hum
%
Delta-T
°C
Wind Press
QNH
hPa
Press
MSL
hPa
Rain
since 9 am
mm
Dir
 
Spd
km/h
Gust
km/h
Spd
kts
Gust
kts
20/11:30pm 6.6 2.8 3.9 83 1.2 ESE 13 15 7 8 1033.3 - 0.0
20/11:00pm 6.4 2.5 3.6 82 1.2 ESE 13 15 7 8 1033.4 - 0.0
20/10:30pm 6.1 2.1 3.1 81 1.2 ESE 13 15 7 8 1033.6 - 0.0
20/10:00pm 6.4 2.7 2.5 76 1.6 ESE 11 13 6 7 1033.9 - 0.0
20/09:30pm 7.0 4.1 2.7 74 1.8 E 7 11 4 6 1034.0 - 0.0
20/09:00pm 7.4 4.1 2.7 72 1.9 E 9 11 5 6 1033.7 1033.7 0.0
20/08:30pm 7.0 3.7 2.5 73 1.9 E 9 11 5 6 1033.3 - 0.0
20/08:00pm 7.7 4.1 3.0 72 2.0 E 11 15 6 8 1033.0 - 0.0
20/07:30pm 9.5 5.6 3.3 65 2.7 E 13 13 7 7 1033.0 - 0.0
20/07:00pm 11.2 7.2 3.0 57 3.6 NE 13 17 7 9 1032.9 - 0.0
20/06:30pm 11.9 8.0 3.2 55 3.8 NNE 13 17 7 9 1033.0 - 0.0
20/06:00pm 12.2 7.5 3.2 54 3.9 NE 17 20 9 11 1033.2 1033.2 0.0
20/05:30pm 12.6 7.8 2.5 50 4.4 NE 17 22 9 12 1033.2 - 0.0
20/05:00pm 13.1 7.8 2.9 50 4.5 NE 20 26 11 14 1033.3 - 0.0
20/04:30pm 13.4 8.0 2.3 47 4.9 NE 20 26 11 14 1033.3 - 0.0
20/04:00pm 13.4 8.1 2.9 49 4.7 NE 20 28 11 15 1033.3 - 0.0
20/03:30pm 13.3 7.7 3.7 52 4.3 NE 22 33 12 18 1033.4 - 0.0
20/03:00pm 13.4 7.5 4.0 53 4.2 NNE 24 33 13 18 1033.5 1033.5 0.0
20/02:30pm 13.3 7.6 2.8 49 4.6 NE 22 35 12 19 1033.8 - 0.0
20/02:00pm 13.5 7.1 3.0 49 4.7 NE 26 39 14 21 1034.0 - 0.0
20/01:30pm 13.9 7.6 -1.3 35 6.2 ENE 22 32 12 17 1034.2 - 0.0
20/01:00pm 13.2 7.5 2.7 49 4.6 NNE 22 37 12 20 1034.1 - 0.0
20/12:30pm 12.8 7.7 3.2 52 4.3 NE 19 30 10 16 1034.5 - 0.0
20/12:00pm 13.0 7.9 2.8 50 4.4 ENE 19 26 10 14 1034.7 1034.7 0.0
20/11:30am 13.1 8.7 4.5 56 3.9 ENE 17 26 9 14 1034.7 - 0.0
20/11:00am 12.7 8.0 3.4 53 4.1 NE 17 28 9 15 1034.7 - 0.0
20/10:30am 12.0 7.7 3.5 56 3.8 E 15 20 8 11 1034.5 - 0.0
20/10:00am 11.4 7.0 2.7 55 3.8 ESE 15 20 8 11 1034.4 - 0.0
20/09:30am 10.4 5.5 1.8 55 3.6 ESE 17 20 9 11 1034.3 - 0.0
20/09:00am 9.0 5.9 5.6 79 1.5 SSE 11 15 6 8 1034.0 1034.0 1.0
20/08:30am 6.5 2.5 4.7 88 0.8 S 15 19 8 10 1033.8 - 1.0
20/08:00am 4.5 0.4 4.2 98 0.1 S 15 19 8 10 1033.6 - 1.0
20/07:30am 2.4 -2.1 2.3 99 0.0 S 15 17 8 9 1033.2 - 0.8
20/07:00am 1.0 -3.7 0.9 99 0.0 S 15 19 8 10 1032.7 - 0.6
20/06:30am 0.4 -3.2 0.3 99 0.0 SE 9 11 5 6 1032.4 - 0.6
20/06:00am 0.3 -3.7 0.2 99 0.0 SSW 11 15 6 8 1031.9 1031.9 0.6
20/05:30am 0.8 -2.2 0.7 99 0.0 S 6 7 3 4 1031.4 - 0.6
20/05:00am 1.7 -1.7 1.6 99 0.0 S 9 13 5 7 1030.8 - 0.6
20/04:30am 0.8 -3.5 0.7 99 0.0 S 13 17 7 9 1031.0 - 0.6
20/04:00am 0.9 -2.7 0.8 99 0.0 SSW 9 11 5 6 1030.4 - 0.6
20/03:30am 1.4 -2.5 1.3 99 0.0 SSW 11 13 6 7 1030.4 - 0.6
20/03:00am 1.5 -1.6 1.4 99 0.0 S 7 9 4 5 1030.4 1030.4 0.6
20/02:30am 2.2 -0.6 2.1 99 0.0 SW 6 7 3 4 1030.3 - 0.6
20/02:00am 3.0 1.5 2.9 99 0.0 CALM 0 0 0 0 1030.5 - 0.6
20/01:30am 3.4 0.8 3.0 97 0.2 SW 6 7 3 4 1030.3 - 0.6
20/01:00am 4.3 2.9 3.7 96 0.2 CALM 0 0 0 0 1030.1 - 0.6
20/12:30am 4.2 1.4 3.3 94 0.4 SW 7 11 4 6 1029.6 - 0.6
20/12:00am 5.2 2.2 4.0 92 0.5 SW 9 11 5 6 1028.9 1028.9 0.6
 
Date/Time
EDT
Temp
°C
App
Temp
°C
Dew
Point
Rel
Hum
%
Delta-T
°C
Wind Press
QNH
hPa
Press
MSL
hPa
Rain
since 9 am
mm
Dir
 
Spd
km/h
Gust
km/h
Spd
kts
Gust
kts
19/11:30pm 5.8 2.5 4.3 90 0.6 SW 11 13 6 7 1028.5 - 0.6
19/11:00pm 6.7 2.7 4.7 87 0.9 SSW 15 22 8 12 1028.1 - 0.6
19/10:30pm 7.5 2.8 5.3 86 1.0 SW 19 30 10 16 1027.6 - 0.6
19/10:00pm 7.2 3.4 5.8 91 0.6 SW 15 22 8 12 1027.2 - 0.6
19/09:30pm 7.3 3.2 6.1 92 0.5 SSW 17 20 9 11 1026.8 - 0.6
19/09:00pm 7.8 3.2 6.4 91 0.6 SSW 20 28 11 15 1026.0 1026.0 0.6
19/08:30pm 8.3 3.8 6.9 91 0.6 SW 20 28 11 15 1024.9 - 0.6
19/08:00pm 8.8 2.9 7.4 91 0.7 SW 28 39 15 21 1024.3 - 0.6
19/07:30pm 9.4 3.3 8.2 92 0.6 SW 30 44 16 24 1023.8 - 0.6
19/07:00pm 9.6 4.8 8.7 94 0.4 SW 24 30 13 16 1023.3 - 0.6
19/06:30pm 9.4 5.3 8.6 95 0.4 SW 20 28 11 15 1022.5 - 0.6
19/06:00pm 9.3 4.7 8.2 93 0.5 SSW 22 32 12 17 1021.9 1021.9 0.6
19/05:30pm 9.6 2.4 7.5 87 1.0 SSW 35 48 19 26 1021.7 - 0.2
19/05:00pm 10.8 3.6 7.7 81 1.5 SSW 35 56 19 30 1021.0 - 0.0
19/04:31pm 11.4 3.3 8.6 83 1.4 SW 41 59 22 32 1020.6 - 0.0
19/04:30pm 11.5 3.5 9.1 85 1.2 SW 41 54 22 29 1020.4 - 0.0
19/04:13pm 13.1 5.8 8.6 74 2.2 SW 37 57 20 31 1019.0 - 0.0
19/04:00pm 15.1 8.2 8.8 66 3.2 SW 35 44 19 24 1019.2 - 0.0
19/03:50pm 15.5 9.0 8.3 62 3.6 SW 32 50 17 27 1019.2 - 0.0
19/03:30pm 15.6 7.9 8.6 63 3.6 SW 39 50 21 27 1019.1 - 0.0
19/03:00pm 17.4 12.0 10.8 65 3.5 SW 30 35 16 19 1017.8 1017.8 0.0
19/02:30pm 16.9 11.1 10.7 67 3.3 SSW 32 43 17 23 1017.8 - 0.0
19/02:00pm 17.0 11.2 10.8 67 3.3 SW 32 39 17 21 1018.4 - 0.0
19/01:30pm 17.9 11.8 11.7 67 3.4 SW 35 46 19 25 1018.5 - 0.0
19/01:00pm 17.5 12.0 11.8 69 3.1 WSW 32 39 17 21 1018.7 - 0.0
19/12:30pm 16.9 12.0 11.4 70 3.0 SW 28 39 15 21 1018.8 - 0.0
19/12:00pm 16.0 11.8 11.0 72 2.7 SW 24 32 13 17 1018.8 1018.8 0.0
19/11:30am 15.6 12.3 11.6 77 2.2 SW 20 24 11 13 1018.7 - 0.0
19/11:00am 15.7 11.9 11.3 75 2.4 SW 22 32 12 17 1018.9 - 0.0
19/10:30am 14.8 11.0 12.3 85 1.4 SSW 24 32 13 17 1019.0 - 0.0
19/10:00am 14.7 10.6 12.6 87 1.1 SW 26 33 14 18 1019.2 - 0.0
19/09:30am 14.4 11.5 13.0 91 0.8 WSW 20 28 11 15 1019.4 - 0.0
19/09:00am 13.5 11.0 12.2 92 0.7 WSW 17 20 9 11 1018.9 1018.9 0.4
19/08:30am 13.5 11.8 12.4 93 0.6 WSW 13 17 7 9 1018.6 - 0.4
19/08:00am 13.6 11.6 12.8 95 0.4 WSW 15 20 8 11 1018.6 - 0.4
19/07:30am 13.3 11.6 12.5 95 0.4 W 13 17 7 9 1018.6 - 0.4
19/07:00am 13.2 12.2 12.4 95 0.4 WNW 9 15 5 8 1018.1 - 0.4
19/06:30am 13.0 11.4 12.7 98 0.2 W 13 15 7 8 1018.1 - 0.4
19/06:00am 13.0 11.4 12.7 98 0.2 WSW 13 17 7 9 1017.5 1017.5 0.4
19/05:30am 13.1 11.9 12.9 99 0.1 W 11 20 6 11 1017.5 - 0.4
19/05:00am 12.8 12.4 12.5 98 0.2 W 6 9 3 5 1017.1 - 0.4
19/04:30am 11.5 10.2 11.3 99 0.1 WSW 9 11 5 6 1017.5 - 0.4
19/04:00am 11.4 10.8 10.5 94 0.5 NE 4 7 2 4 1017.1 - 0.4
19/03:30am 12.7 11.0 11.3 91 0.7 NE 11 15 6 8 1017.1 - 0.4
19/03:00am 13.3 11.7 11.4 88 1.0 ENE 11 19 6 10 1017.7 1017.7 0.4
19/02:30am 13.3 9.6 11.5 89 1.0 ENE 22 30 12 16 1017.8 - 0.4
19/02:00am 13.5 9.8 11.6 88 1.0 ENE 22 26 12 14 1017.8 - 0.4
19/01:30am 13.4 10.1 11.5 88 1.0 ENE 20 24 11 13 1018.3 - 0.4
19/01:00am 13.0 9.3 11.4 90 0.8 ENE 22 28 12 15 1018.5 - 0.4
19/12:30am 13.1 9.9 11.3 89 1.0 ENE 19 28 10 15 1019.0 - 0.4
19/12:00am 13.2 9.8 11.3 88 1.0 E 20 26 11 14 1019.2 1019.2 0.4
 
Date/Time
EDT
Temp
°C
App
Temp
°C
Dew
Point
Rel
Hum
%
Delta-T
°C
Wind Press
QNH
hPa
Press
MSL
hPa
Rain
since 9 am
mm
Dir
 
Spd
km/h
Gust
km/h
Spd
kts
Gust
kts
18/11:30pm 13.2 9.5 11.4 89 1.0 ENE 22 28 12 15 1019.1 - 0.4
18/11:00pm 13.3 9.6 11.5 89 1.0 ENE 22 30 12 16 1019.4 - 0.4
18/10:30pm 13.2 8.4 11.6 90 0.9 E 28 41 15 22 1019.2 - 0.4
18/10:00pm 12.9 9.6 11.6 92 0.7 ENE 20 30 11 16 1020.0 - 0.4
18/09:30pm 12.7 9.7 11.8 94 0.5 ENE 19 24 10 13 1020.2 - 0.4
18/09:00pm 12.8 7.7 11.9 94 0.5 ENE 30 39 16 21 1020.6 1020.6 0.4
18/08:30pm 12.9 6.8 11.8 93 0.6 ENE 35 48 19 26 1019.7 - 0.4
18/08:00pm 12.9 7.4 11.8 93 0.6 ENE 32 43 17 23 1019.9 - 0.4
18/07:30pm 12.9 8.5 11.6 92 0.7 ENE 26 35 14 19 1020.5 - 0.4
18/07:00pm 13.1 8.7 11.7 91 0.7 E 26 39 14 21 1021.1 - 0.4
18/06:30pm 13.4 9.1 12.0 91 0.8 ENE 26 35 14 19 1021.7 - 0.4
18/06:00pm 13.6 9.7 12.0 90 0.9 ENE 24 33 13 18 1022.2 1022.2 0.4
18/05:30pm 14.0 10.2 12.4 90 0.9 ENE 24 32 13 17 1022.3 - 0.4
18/05:00pm 13.8 10.8 12.5 92 0.7 NE 20 26 11 14 1023.1 - 0.4
18/04:30pm 13.3 9.7 11.9 91 0.7 ENE 22 32 12 17 1022.5 - 0.4
18/04:00pm 13.2 8.9 11.9 92 0.7 ENE 26 35 14 19 1021.6 - 0.4
18/03:30pm 13.4 9.6 12.5 94 0.5 ENE 24 35 13 19 1022.1 - 0.4
18/03:00pm 13.8 9.3 11.5 86 1.2 ENE 26 35 14 19 1023.2 1023.2 0.0
18/02:30pm 15.0 10.1 11.2 78 2.0 ENE 28 33 15 18 1023.7 - 0.0
18/02:00pm 15.7 11.7 11.9 78 2.1 NE 24 32 13 17 1024.4 - 0.0
18/01:30pm 14.9 11.3 11.7 81 1.7 NE 22 35 12 19 1024.8 - 0.0
18/01:00pm 15.5 10.4 11.9 79 2.0 NE 30 39 16 21 1024.4 - 0.0
18/12:30pm 15.0 10.1 11.4 79 1.9 NE 28 35 15 19 1025.4 - 0.0
18/12:00pm 14.8 10.2 11.2 79 1.9 NNE 26 37 14 20 1025.9 1025.9 0.0
18/11:30am 14.6 9.3 11.2 80 1.8 NE 30 41 16 22 1025.2 - 0.0

Other Formats:

Comma delimited format used in spreadsheet applications
http://www.bom.gov.au/fwo/IDT60801/IDT60801.94953.axf

JavaScript Object Notation format (JSON) in row-major order
http://www.bom.gov.au/fwo/IDT60801/IDT60801.94953.json